createdAt,value
2022-08-05T00:00:49.986Z,8.27
2022-08-05T00:03:16.362Z,10.15
2022-08-05T00:06:06.652Z,8.80
2022-08-05T00:08:34.541Z,6.43
2022-08-05T00:13:38.285Z,5.78
2022-08-05T00:16:06.143Z,8.40
2022-08-05T00:18:34.872Z,6.35
2022-08-05T00:21:01.051Z,9.35
2022-08-05T00:23:44.255Z,6.85
2022-08-05T00:26:13.298Z,7.72
2022-08-05T00:28:42.643Z,9.52
2022-08-05T00:31:12.039Z,8.10
2022-08-05T00:34:56.559Z,7.68
2022-08-05T00:37:11.128Z,10.02
2022-08-05T00:39:13.793Z,5.35
2022-08-05T00:41:55.178Z,12.18
2022-08-05T00:44:23.154Z,9.57
2022-08-05T00:46:54.192Z,8.38
2022-08-05T00:49:27.999Z,9.27
2022-08-05T00:51:59.085Z,10.57
2022-08-05T00:54:27.970Z,7.65
2022-08-05T00:56:54.458Z,7.00
2022-08-05T00:59:20.638Z,8.75
2022-08-05T01:01:48.975Z,9.35
2022-08-05T01:04:15.908Z,13.73
2022-08-05T01:06:48.809Z,12.80
2022-08-05T01:09:15.286Z,8.13
2022-08-05T01:11:43.606Z,6.60
2022-08-05T01:14:09.839Z,9.02
2022-08-05T01:16:36.013Z,9.40
2022-08-05T01:19:02.917Z,11.73
2022-08-05T01:21:38.112Z,7.30
2022-08-05T01:24:05.279Z,6.57
2022-08-05T01:26:40.569Z,15.02
2022-08-05T01:29:06.746Z,11.80
2022-08-05T01:31:33.124Z,6.43
2022-08-05T01:34:09.034Z,7.78
2022-08-05T01:36:42.300Z,7.35
2022-08-05T01:39:13.099Z,7.60
2022-08-05T01:41:39.482Z,7.22
2022-08-05T01:44:11.267Z,13.15
2022-08-05T01:46:42.529Z,12.38
2022-08-05T01:49:23.948Z,9.32
2022-08-05T01:51:51.801Z,9.48
2022-08-05T01:54:18.207Z,7.85
2022-08-05T01:58:12.459Z,12.43
2022-08-05T01:59:37.061Z,5.65
2022-08-05T02:02:03.355Z,8.77
2022-08-05T02:04:30.001Z,10.07
2022-08-05T02:06:56.308Z,14.45
2022-08-05T02:09:24.234Z,6.20
2022-08-05T02:11:52.645Z,10.02
2022-08-05T02:14:19.066Z,7.50
2022-08-05T02:16:45.235Z,9.93
2022-08-05T02:19:11.471Z,7.03
2022-08-05T02:21:43.485Z,7.00
2022-08-05T02:24:18.017Z,6.22
2022-08-05T02:26:53.705Z,6.55
2022-08-05T02:29:21.507Z,5.82
2022-08-05T02:31:52.447Z,10.30
2022-08-05T02:34:22.233Z,6.50
2022-08-05T02:36:49.072Z,5.43
2022-08-05T02:39:15.330Z,4.93
2022-08-05T02:41:57.665Z,8.35
2022-08-05T02:44:27.613Z,7.50
2022-08-05T02:47:00.948Z,7.07
2022-08-05T02:49:27.348Z,7.32
2022-08-05T02:52:03.697Z,9.20
2022-08-05T02:54:36.373Z,6.32
2022-08-05T02:57:03.545Z,5.55
2022-08-05T02:59:31.362Z,6.30
2022-08-05T03:02:14.235Z,7.47
2022-08-05T03:04:41.690Z,11.48
2022-08-05T03:07:07.950Z,5.05
2022-08-05T03:09:52.001Z,12.73
2022-08-05T03:12:18.994Z,7.05
2022-08-05T03:14:48.193Z,4.63
2022-08-05T03:17:15.143Z,6.55
2022-08-05T03:19:42.035Z,5.70
2022-08-05T03:22:16.506Z,9.63
2022-08-05T03:27:17.174Z,8.98
2022-08-05T03:29:44.514Z,6.90
2022-08-05T03:32:12.285Z,5.82
2022-08-05T03:34:40.698Z,7.38
2022-08-05T03:37:06.890Z,9.85
2022-08-05T03:39:37.854Z,10.52
2022-08-05T03:42:04.570Z,7.53
2022-08-05T03:44:30.774Z,6.70
2022-08-05T03:46:59.737Z,6.32
2022-08-05T03:49:31.012Z,7.90
2022-08-05T03:52:39.018Z,7.45
2022-08-05T03:55:34.462Z,7.93
2022-08-05T03:57:44.741Z,8.82
2022-08-05T04:00:11.339Z,7.05
2022-08-05T04:02:51.880Z,7.97
2022-08-05T04:05:18.675Z,6.95
2022-08-05T04:07:57.324Z,10.07
2022-08-05T04:10:24.595Z,14.75
2022-08-05T04:12:54.242Z,5.30
2022-08-05T04:15:20.993Z,7.15
2022-08-05T04:17:57.104Z,10.23
2022-08-05T04:20:26.193Z,6.03
2022-08-05T04:22:52.419Z,12.82
2022-08-05T04:25:18.629Z,12.40
2022-08-05T04:27:56.783Z,7.82
2022-08-05T04:30:24.467Z,5.82
2022-08-05T04:32:52.812Z,8.07
2022-08-05T04:35:19.926Z,6.65
2022-08-05T04:38:00.724Z,10.45
2022-08-05T04:40:28.005Z,5.63
2022-08-05T04:42:55.756Z,7.32
2022-08-05T04:45:31.079Z,6.13
2022-08-05T04:48:08.163Z,6.40
2022-08-05T04:51:03.574Z,11.00
2022-08-05T04:53:28.881Z,7.70
2022-08-05T04:56:14.379Z,7.70
2022-08-05T04:58:46.138Z,6.35
2022-08-05T05:01:13.273Z,5.07
2022-08-05T05:03:41.838Z,8.77
2022-08-05T05:06:39.968Z,10.88
2022-08-05T05:08:54.842Z,6.65
2022-08-05T05:11:21.638Z,11.32
2022-08-05T05:14:08.715Z,6.90
2022-08-05T05:16:42.406Z,6.07
2022-08-05T05:19:18.699Z,7.45
2022-08-05T05:21:46.547Z,4.95
2022-08-05T05:24:12.816Z,6.85
2022-08-05T05:26:46.457Z,4.65
2022-08-05T05:29:14.712Z,3.70
2022-08-05T05:34:06.243Z,6.38
2022-08-05T05:36:32.695Z,7.20
2022-08-05T05:39:04.265Z,4.32
2022-08-05T05:41:40.573Z,8.35
2022-08-05T05:44:35.608Z,5.45
2022-08-05T05:46:54.284Z,4.95
2022-08-05T05:49:23.407Z,8.68
2022-08-05T05:51:50.791Z,5.28
2022-08-05T05:54:19.752Z,11.35
2022-08-05T05:56:45.941Z,5.38
2022-08-05T05:59:13.608Z,5.90
2022-08-05T06:01:40.200Z,6.10
2022-08-05T06:04:06.609Z,6.50
2022-08-05T06:06:34.789Z,5.95
2022-08-05T06:09:01.289Z,10.48
2022-08-05T06:11:29.455Z,7.90
2022-08-05T06:13:55.716Z,3.53
2022-08-05T06:16:30.073Z,5.75
2022-08-05T06:19:00.779Z,8.02
2022-08-05T06:21:35.736Z,9.10
2022-08-05T06:24:03.526Z,5.03
2022-08-05T06:26:31.853Z,8.88
2022-08-05T06:29:03.679Z,6.75
2022-08-05T06:31:33.671Z,7.18
2022-08-05T06:34:07.036Z,10.95
2022-08-05T06:36:53.533Z,6.97
2022-08-05T06:39:21.896Z,4.50
2022-08-05T06:41:50.858Z,7.35
2022-08-05T06:44:18.410Z,11.00
2022-08-05T06:46:50.909Z,4.40
2022-08-05T06:49:17.451Z,11.27
2022-08-05T06:51:45.095Z,6.40
2022-08-05T06:54:11.958Z,6.70
2022-08-05T06:56:54.976Z,8.73
2022-08-05T06:59:30.466Z,7.72
2022-08-05T07:02:05.162Z,6.20
2022-08-05T07:04:31.426Z,6.07
2022-08-05T07:06:59.298Z,4.40
2022-08-05T07:09:25.497Z,9.38
2022-08-05T07:12:00.371Z,6.38
2022-08-05T07:14:30.299Z,6.60
2022-08-05T07:18:01.835Z,7.00
2022-08-05T07:22:30.827Z,5.82
2022-08-05T07:24:57.037Z,6.30
2022-08-05T07:27:23.362Z,7.35
2022-08-05T07:30:28.052Z,7.55
2022-08-05T07:32:40.192Z,5.95
2022-08-05T07:36:03.318Z,5.85
2022-08-05T07:37:53.765Z,6.00
2022-08-05T07:40:31.929Z,11.50
2022-08-05T07:42:59.087Z,7.82
2022-08-05T07:45:56.451Z,8.02
2022-08-05T07:48:11.604Z,12.43
2022-08-05T07:50:39.622Z,5.85
2022-08-05T07:53:08.258Z,8.35
2022-08-05T07:56:04.790Z,9.68
2022-08-05T07:58:55.040Z,6.82
2022-08-05T08:01:12.154Z,6.38
2022-08-05T08:03:44.393Z,9.50
2022-08-05T08:06:11.255Z,9.20
2022-08-05T08:08:37.458Z,9.52
2022-08-05T08:11:03.706Z,8.02
2022-08-05T08:13:42.716Z,9.25
2022-08-05T08:16:35.713Z,7.40
2022-08-05T08:19:02.030Z,8.30
2022-08-05T08:21:28.467Z,8.80
2022-08-05T08:24:00.968Z,10.93
2022-08-05T08:26:30.975Z,12.50
2022-08-05T08:28:59.737Z,7.25
2022-08-05T08:31:43.353Z,7.35
2022-08-05T08:34:09.596Z,6.30
2022-08-05T08:36:48.828Z,7.70
2022-08-05T08:39:18.878Z,6.72
2022-08-05T08:41:52.377Z,8.35
2022-08-05T08:45:22.113Z,9.07
2022-08-05T08:47:22.248Z,9.25
2022-08-05T08:50:13.057Z,7.63
2022-08-05T08:52:47.377Z,7.97
2022-08-05T08:55:19.610Z,6.68
2022-08-05T08:57:58.687Z,8.35
2022-08-05T09:00:25.014Z,5.65
2022-08-05T09:02:52.453Z,7.28
2022-08-05T09:05:18.701Z,5.32
2022-08-05T09:08:04.926Z,6.10
2022-08-05T09:10:31.132Z,6.40
2022-08-05T09:12:58.938Z,10.63
2022-08-05T09:15:31.510Z,11.70
2022-08-05T09:18:03.059Z,7.63
2022-08-05T09:20:37.876Z,7.55
2022-08-05T09:23:05.521Z,10.40
2022-08-05T09:26:02.841Z,8.65
2022-08-05T09:28:21.557Z,7.47
2022-08-05T09:30:47.894Z,9.38
2022-08-05T09:33:17.154Z,8.32
2022-08-05T09:35:43.468Z,13.90
2022-08-05T09:38:17.389Z,7.50
2022-08-05T09:40:53.771Z,5.78
2022-08-05T09:43:20.331Z,5.50
2022-08-05T09:46:07.830Z,10.32
2022-08-05T09:48:32.744Z,5.07
2022-08-05T09:50:58.968Z,6.30
2022-08-05T09:53:54.336Z,10.95
2022-08-05T09:56:13.629Z,5.60
2022-08-05T09:58:41.645Z,10.02
2022-08-05T10:01:15.393Z,6.72
2022-08-05T10:03:58.619Z,7.53
2022-08-05T10:06:25.487Z,12.05
2022-08-05T10:08:53.861Z,7.40
2022-08-05T10:11:21.826Z,6.28
2022-08-05T10:13:49.211Z,6.68
2022-08-05T10:16:15.681Z,7.35
2022-08-05T10:18:43.141Z,8.20
2022-08-05T10:21:16.367Z,10.50
2022-08-05T10:23:59.624Z,8.70
2022-08-05T10:26:32.398Z,12.15
2022-08-05T10:28:59.106Z,7.90
2022-08-05T10:33:00.860Z,10.35
2022-08-05T10:34:11.608Z,6.07
2022-08-05T10:36:37.855Z,10.38
2022-08-05T10:39:05.292Z,7.50
2022-08-05T10:41:45.192Z,7.78
2022-08-05T10:44:13.379Z,6.38
2022-08-05T10:46:39.603Z,5.18
2022-08-05T10:49:10.181Z,5.78
2022-08-05T10:51:36.757Z,4.85
2022-08-05T10:54:23.419Z,6.25
2022-08-05T10:56:56.254Z,6.90
2022-08-05T11:00:03.709Z,8.50
2022-08-05T11:02:14.482Z,6.25
2022-08-05T11:04:55.949Z,6.43
2022-08-05T11:07:33.350Z,10.63
2022-08-05T11:10:10.243Z,9.10
2022-08-05T11:12:37.236Z,5.93
2022-08-05T11:15:19.682Z,5.40
2022-08-05T11:17:57.369Z,5.93
2022-08-05T11:20:27.127Z,5.97
2022-08-05T11:22:57.983Z,6.25
2022-08-05T11:26:04.964Z,6.57
2022-08-05T11:28:17.154Z,6.57
2022-08-05T11:30:43.706Z,5.38
2022-08-05T11:33:21.072Z,7.10
2022-08-05T11:36:02.897Z,5.20
2022-08-05T11:38:45.294Z,5.40
2022-08-05T11:41:34.245Z,4.13
2022-08-05T11:44:06.504Z,5.60
2022-08-05T11:46:33.972Z,3.45
2022-08-05T11:49:01.234Z,4.72
2022-08-05T11:51:44.448Z,3.92
2022-08-05T11:54:14.075Z,4.50
2022-08-05T11:56:41.144Z,4.18
2022-08-05T11:59:13.802Z,3.53
2022-08-05T12:01:40.223Z,3.17
2022-08-05T12:04:06.438Z,4.28
2022-08-05T12:06:32.672Z,5.72
2022-08-05T12:08:59.411Z,3.83
2022-08-05T12:11:28.373Z,2.97
2022-08-05T12:14:06.878Z,5.63
2022-08-05T12:16:33.366Z,3.90
2022-08-05T12:19:04.785Z,5.18
2022-08-05T12:21:38.915Z,3.20
2022-08-05T12:24:07.216Z,5.90
2022-08-05T12:26:33.729Z,2.85
2022-08-05T12:29:01.539Z,3.20
2022-08-05T12:31:33.653Z,5.18
2022-08-05T12:34:14.585Z,3.70
2022-08-05T12:36:47.849Z,3.10
2022-08-05T12:39:14.094Z,4.80
2022-08-05T12:41:43.998Z,10.82
2022-08-05T12:44:11.562Z,3.60
2022-08-05T12:46:40.529Z,4.95
2022-08-05T12:49:13.791Z,7.07
2022-08-05T12:52:13.012Z,4.35
2022-08-05T12:54:26.801Z,4.82
2022-08-05T12:56:53.013Z,3.20
2022-08-05T12:59:21.070Z,5.18
2022-08-05T13:02:00.182Z,6.43
2022-08-05T13:04:32.404Z,4.25
2022-08-05T13:06:58.590Z,6.78
2022-08-05T13:09:27.960Z,5.13
2022-08-05T13:12:02.751Z,4.82
2022-08-05T13:14:36.269Z,3.85
2022-08-05T13:17:02.903Z,5.88
2022-08-05T13:19:52.531Z,5.53
2022-08-05T13:22:29.731Z,8.07
2022-08-05T13:24:58.060Z,4.65
2022-08-05T13:27:37.544Z,4.18
2022-08-05T13:30:34.138Z,3.38
2022-08-05T13:32:50.895Z,8.05
2022-08-05T13:35:22.306Z,5.88
2022-08-05T13:37:57.447Z,6.93
2022-08-05T13:40:51.425Z,6.15
2022-08-05T13:43:21.985Z,4.60
2022-08-05T13:45:48.552Z,4.40
2022-08-05T13:48:57.635Z,3.78
2022-08-05T13:51:03.329Z,5.35
2022-08-05T13:53:29.519Z,5.18
2022-08-05T13:56:01.782Z,3.88
2022-08-05T13:58:30.802Z,5.47
2022-08-05T14:00:57.390Z,4.65
2022-08-05T14:03:24.001Z,5.90
2022-08-05T14:06:24.377Z,5.05
2022-08-05T14:08:36.987Z,5.38
2022-08-05T14:11:20.841Z,5.20
2022-08-05T14:13:48.482Z,6.93
2022-08-05T14:16:21.048Z,5.95
2022-08-05T14:18:47.238Z,3.92
2022-08-05T14:22:07.310Z,5.47
2022-08-05T14:24:00.645Z,5.75
2022-08-05T14:26:38.695Z,8.48
2022-08-05T14:29:16.165Z,6.57
2022-08-05T14:32:02.436Z,3.95
2022-08-05T14:34:29.275Z,8.50
2022-08-05T14:37:01.740Z,6.97
2022-08-05T14:39:28.039Z,6.15
2022-08-05T14:42:15.883Z,7.43
2022-08-05T14:44:41.675Z,6.35
2022-08-05T14:47:08.896Z,8.38
2022-08-05T14:49:56.282Z,5.22
2022-08-05T14:52:42.820Z,5.63
2022-08-05T14:55:07.581Z,6.93
2022-08-05T14:57:34.032Z,10.20
2022-08-05T15:00:20.136Z,7.20
2022-08-05T15:02:46.418Z,8.32
2022-08-05T15:05:13.553Z,8.05
2022-08-05T15:08:11.406Z,5.47
2022-08-05T15:10:26.227Z,5.78
2022-08-05T15:13:00.970Z,6.78
2022-08-05T15:15:55.468Z,4.40
2022-08-05T15:18:17.285Z,6.53
2022-08-05T15:20:43.679Z,4.88
2022-08-05T15:23:12.184Z,5.25
2022-08-05T15:25:40.980Z,4.15
2022-08-05T15:28:18.055Z,7.00
2022-08-05T15:30:45.859Z,7.15
2022-08-05T15:33:12.807Z,8.95
2022-08-05T15:35:59.284Z,5.70
2022-08-05T15:38:36.184Z,3.55
2022-08-05T15:41:22.839Z,6.45
2022-08-05T15:43:50.524Z,7.60
2022-08-05T15:46:17.141Z,5.85
2022-08-05T15:48:54.828Z,7.45
2022-08-05T15:52:04.067Z,6.40
2022-08-05T15:54:15.027Z,9.85
2022-08-05T15:56:41.556Z,5.82
2022-08-05T15:59:07.742Z,6.35
2022-08-05T16:01:39.389Z,7.20
2022-08-05T16:04:06.283Z,5.72
2022-08-05T16:06:36.578Z,6.72
2022-08-05T16:09:02.960Z,9.05
2022-08-05T16:11:42.743Z,6.53
2022-08-05T16:14:09.423Z,7.45
2022-08-05T16:16:35.658Z,8.43
2022-08-05T16:19:01.828Z,4.07
2022-08-05T16:22:00.834Z,5.15
2022-08-05T16:24:40.704Z,5.70
2022-08-05T16:27:00.547Z,3.67
2022-08-05T16:29:26.862Z,8.05
2022-08-05T16:31:57.787Z,5.10
2022-08-05T16:34:24.085Z,5.45
2022-08-05T16:36:50.277Z,3.25
2022-08-05T16:39:18.699Z,3.85
2022-08-05T16:42:15.014Z,5.50
2022-08-05T16:44:33.235Z,4.82
2022-08-05T16:46:59.409Z,2.45
2022-08-05T16:49:25.586Z,1.58
2022-08-05T16:51:56.852Z,2.92
2022-08-05T16:54:30.340Z,1.77
2022-08-05T16:56:59.226Z,1.70
2022-08-05T16:59:25.408Z,5.35
2022-08-05T17:01:55.924Z,1.90
2022-08-05T17:04:23.686Z,2.58
2022-08-05T17:06:53.479Z,1.88
2022-08-05T17:09:19.906Z,2.03
2022-08-05T17:11:48.813Z,1.52
2022-08-05T17:14:22.529Z,2.28
2022-08-05T17:17:01.046Z,4.60
2022-08-05T17:19:28.849Z,7.57
2022-08-05T17:21:56.844Z,3.38
2022-08-05T17:24:35.190Z,3.95
2022-08-05T17:27:06.598Z,1.45
2022-08-05T17:29:40.920Z,2.50
2022-08-05T17:32:08.274Z,2.22
2022-08-05T17:34:34.894Z,0.82
2022-08-05T17:37:01.833Z,1.52
2022-08-05T17:39:34.184Z,4.32
2022-08-05T17:42:19.137Z,1.23
2022-08-05T17:44:50.557Z,3.35
2022-08-05T17:47:17.178Z,2.58
2022-08-05T17:49:52.140Z,1.77
2022-08-05T17:52:29.840Z,2.65
2022-08-05T17:54:56.070Z,0.90
2022-08-05T17:57:22.261Z,1.38
2022-08-05T18:00:03.287Z,0.65
2022-08-05T18:02:31.298Z,2.13
2022-08-05T18:04:57.573Z,1.13
2022-08-05T18:07:25.062Z,1.88
2022-08-05T18:10:08.718Z,0.80
2022-08-05T18:12:35.963Z,1.52
2022-08-05T18:15:02.171Z,1.63
2022-08-05T18:18:01.415Z,0.85
2022-08-05T18:20:15.220Z,0.80
2022-08-05T18:22:54.231Z,1.08
2022-08-05T18:25:21.233Z,1.08
2022-08-05T18:27:52.390Z,1.17
2022-08-05T18:30:18.980Z,1.33
2022-08-05T18:32:53.733Z,0.98
2022-08-05T18:35:49.559Z,1.52
2022-08-05T18:38:13.578Z,1.00
2022-08-05T18:41:55.605Z,2.38
2022-08-05T18:43:31.565Z,1.10
2022-08-05T18:46:04.339Z,1.65
2022-08-05T18:48:33.366Z,1.48
2022-08-05T18:51:01.630Z,1.70
2022-08-05T18:53:50.330Z,3.45
2022-08-05T18:56:16.820Z,3.00
2022-08-05T18:58:48.134Z,1.85
2022-08-05T19:01:18.309Z,1.30
2022-08-05T19:03:53.067Z,2.67
2022-08-05T19:06:34.390Z,1.90
2022-08-05T19:09:08.188Z,1.90
2022-08-05T19:11:59.255Z,1.65
2022-08-05T19:14:53.378Z,1.70
2022-08-05T19:17:07.832Z,1.38
2022-08-05T19:19:34.720Z,1.35
2022-08-05T19:22:01.376Z,1.80
2022-08-05T19:24:34.328Z,1.33
2022-08-05T19:27:01.270Z,1.48
2022-08-05T19:29:35.724Z,2.45
2022-08-05T19:32:02.754Z,2.38
2022-08-05T19:34:30.693Z,2.30
2022-08-05T19:36:56.942Z,2.22
2022-08-05T19:39:23.175Z,2.38
2022-08-05T19:42:07.185Z,2.83
2022-08-05T19:44:40.494Z,2.22
2022-08-05T19:47:11.611Z,2.17
2022-08-05T19:49:42.421Z,4.72
2022-08-05T19:52:30.265Z,2.22
2022-08-05T19:54:57.578Z,2.25
2022-08-05T19:57:47.486Z,2.97
2022-08-05T20:00:12.961Z,2.53
2022-08-05T20:02:39.230Z,1.85
2022-08-05T20:05:09.475Z,2.13
2022-08-05T20:07:38.946Z,2.05
2022-08-05T20:10:14.725Z,2.33
2022-08-05T20:12:47.833Z,2.25
2022-08-05T20:15:14.888Z,3.63
2022-08-05T20:17:49.032Z,1.90
2022-08-05T20:20:16.804Z,1.60
2022-08-05T20:22:44.170Z,4.30
2022-08-05T20:25:13.094Z,4.13
2022-08-05T20:27:42.116Z,2.20
2022-08-05T20:30:08.512Z,3.35
2022-08-05T20:32:34.686Z,3.10
2022-08-05T20:35:02.452Z,1.75
2022-08-05T20:38:05.567Z,1.48
2022-08-05T20:40:14.846Z,2.55
2022-08-05T20:42:44.171Z,2.15
2022-08-05T20:45:10.421Z,3.55
2022-08-05T20:47:40.101Z,2.05
2022-08-05T20:50:07.534Z,1.95
2022-08-05T20:52:33.900Z,2.30
2022-08-05T20:55:55.430Z,2.95
2022-08-05T20:57:46.625Z,4.88
2022-08-05T21:00:40.502Z,2.35
2022-08-05T21:03:01.705Z,3.90
2022-08-05T21:05:37.942Z,3.25
2022-08-05T21:08:14.149Z,2.30
2022-08-05T21:10:40.332Z,5.53
2022-08-05T21:13:26.348Z,3.92
2022-08-05T21:16:01.615Z,4.05
2022-08-05T21:18:29.860Z,4.57
2022-08-05T21:20:56.978Z,7.97
2022-08-05T21:23:23.167Z,1.73
2022-08-05T21:25:50.400Z,4.93
2022-08-05T21:28:18.613Z,2.92
2022-08-05T21:30:45.027Z,3.55
2022-08-05T21:33:21.895Z,4.63
2022-08-05T21:35:56.085Z,2.35
2022-08-05T21:38:25.241Z,5.07
2022-08-05T21:40:51.465Z,4.15
2022-08-05T21:43:24.626Z,2.80
2022-08-05T21:45:56.721Z,2.95
2022-08-05T21:48:23.895Z,3.13
2022-08-05T21:50:53.121Z,4.45
2022-08-05T21:53:20.609Z,3.42
2022-08-05T21:56:04.813Z,4.93
2022-08-05T21:58:33.039Z,2.40
2022-08-05T22:00:59.345Z,2.65
2022-08-05T22:03:52.494Z,3.85
2022-08-05T22:06:11.792Z,3.85
2022-08-05T22:08:38.005Z,4.32
2022-08-05T22:11:09.084Z,6.93
2022-08-05T22:14:06.507Z,2.28
2022-08-05T22:16:41.360Z,4.03
2022-08-05T22:19:56.081Z,2.90
2022-08-05T22:21:55.032Z,3.17
2022-08-05T22:24:40.344Z,4.60
2022-08-05T22:27:10.787Z,2.20
2022-08-05T22:29:40.158Z,1.95
2022-08-05T22:32:09.989Z,1.45
2022-08-05T22:34:36.478Z,3.40
2022-08-05T22:37:03.932Z,1.85
2022-08-05T22:39:33.682Z,4.28
2022-08-05T22:42:10.385Z,3.40
2022-08-05T22:44:39.113Z,4.38
2022-08-05T22:47:06.534Z,3.67
2022-08-05T22:50:19.595Z,2.53
2022-08-05T22:52:30.619Z,5.50
2022-08-05T22:55:00.675Z,1.65
2022-08-05T22:57:26.876Z,11.23
2022-08-05T23:00:00.487Z,1.35
2022-08-05T23:02:30.095Z,2.20
2022-08-05T23:04:56.598Z,3.45
2022-08-05T23:07:22.933Z,2.58
2022-08-05T23:09:57.825Z,2.15
2022-08-05T23:12:28.557Z,3.47
2022-08-05T23:14:55.130Z,2.00
2022-08-05T23:17:24.459Z,4.15
2022-08-05T23:20:00.848Z,1.50
2022-08-05T23:22:28.806Z,1.58
2022-08-05T23:24:54.989Z,2.78
2022-08-05T23:27:21.188Z,1.33
2022-08-05T23:29:49.000Z,1.73
2022-08-05T23:32:16.913Z,2.45
2022-08-05T23:34:49.252Z,0.70
2022-08-05T23:37:16.974Z,4.53
2022-08-05T23:39:53.302Z,3.10
2022-08-05T23:42:29.322Z,1.73
2022-08-05T23:44:56.043Z,2.50
2022-08-05T23:47:22.230Z,3.10
2022-08-05T23:49:52.141Z,1.13
2022-08-05T23:52:22.022Z,1.95
2022-08-05T23:54:51.553Z,1.77
2022-08-05T23:57:17.788Z,3.58
